Time;durP1;ratioP1;P1;durP2;ratioP2;P2;SDS_P1;SDS_P2;PMS_P1;PMS_P2;Temp;Humidity;BMP_temperature;BMP_pressure;BME280_temperature;BME280_humidity;BME280_pressure;Samples;Min_cycle;Max_cycle;Signal;HPM_P1;HPM_P2
2022/06/18 00:00:55;;;;;;;2.30;2.05;;;19.30;58.20;;;;;;5041098;28;20389;-68
2022/06/18 00:03:21;;;;;;;2.42;2.22;;;19.30;58.30;;;;;;5044128;28;20033;-68
2022/06/18 00:05:50;;;;;;;2.45;2.08;;;19.20;58.30;;;;;;5040925;28;20079;-67
2022/06/18 00:08:21;;;;;;;3.33;2.33;;;19.20;58.20;;;;;;5044021;28;20037;-67
2022/06/18 00:10:48;;;;;;;2.90;2.33;;;19.20;58.20;;;;;;5040364;28;20036;-67
2022/06/18 00:13:59;;;;;;;2.20;2.10;;;19.20;58.20;;;;;;5056033;28;20056;-68
2022/06/18 00:16:03;;;;;;;4.43;2.25;;;19.10;58.00;;;;;;5028881;28;20029;-68
2022/06/18 00:18:29;;;;;;;2.60;2.40;;;19.10;58.00;;;;;;5040382;28;20496;-68
2022/06/18 00:20:55;;;;;;;2.65;2.45;;;19.00;58.10;;;;;;5041394;28;20059;-68
2022/06/18 00:23:21;;;;;;;2.50;2.30;;;19.00;58.20;;;;;;5039425;28;20108;-68
2022/06/18 00:25:49;;;;;;;2.30;2.10;;;18.90;58.30;;;;;;5041234;28;20128;-67
2022/06/18 00:28:21;;;;;;;2.35;2.15;;;18.90;58.60;;;;;;5043429;28;20091;-68
2022/06/18 00:30:48;;;;;;;2.65;2.00;;;18.80;58.90;;;;;;5040367;28;20110;-68
2022/06/18 00:33:14;;;;;;;2.53;2.33;;;18.80;58.80;;;;;;5043286;28;20041;-68
2022/06/18 00:35:41;;;;;;;2.53;2.33;;;18.80;59.00;;;;;;5042337;28;20048;-67
2022/06/18 00:38:11;;;;;;;2.45;2.25;;;18.80;59.10;;;;;;5042325;28;20037;-68
2022/06/18 00:40:43;;;;;;;2.70;2.50;;;18.70;59.20;;;;;;5041895;28;20116;-68
2022/06/18 00:44:01;;;;;;;2.53;2.33;;;18.70;59.70;;;;;;5039621;28;20040;-68
2022/06/18 00:46:40;;;;;;;2.55;2.35;;;18.70;60.10;;;;;;5023756;28;20036;-68
2022/06/18 00:49:09;;;;;;;2.70;2.50;;;18.60;60.10;;;;;;5043547;28;20033;-68
2022/06/18 00:51:44;;;;;;;2.80;2.60;;;18.60;59.80;;;;;;5041668;28;20025;-68
2022/06/18 00:54:47;;;;;;;3.30;2.58;;;18.50;60.00;;;;;;5043444;28;20036;-67
2022/06/18 00:57:28;;;;;;;2.53;2.28;;;18.50;61.10;;;;;;5041308;28;20411;-67
2022/06/18 01:00:15;;;;;;;3.40;2.78;;;18.40;60.30;;;;;;5040913;28;20485;-68
2022/06/18 01:02:45;;;;;;;3.10;2.70;;;18.40;60.40;;;;;;5042582;28;20520;-68
2022/06/18 01:05:17;;;;;;;2.40;2.30;;;18.30;60.60;;;;;;5042553;28;20033;-67
2022/06/18 01:07:48;;;;;;;2.50;2.33;;;18.30;60.70;;;;;;5044931;28;20025;-68
2022/06/18 01:10:19;;;;;;;2.80;2.60;;;18.30;60.60;;;;;;5043251;28;20033;-67
2022/06/18 01:12:45;;;;;;;2.70;2.45;;;18.30;60.70;;;;;;5038470;28;20221;-67
2022/06/18 01:15:13;;;;;;;2.45;2.25;;;18.30;60.60;;;;;;5041520;28;20029;-67
2022/06/18 01:17:40;;;;;;;3.80;2.22;;;18.20;60.70;;;;;;5039789;28;20036;-67
2022/06/18 01:20:09;;;;;;;3.22;2.50;;;18.20;60.80;;;;;;5038551;28;20040;-68
2022/06/18 01:22:55;;;;;;;2.60;2.40;;;18.20;61.30;;;;;;5039165;28;20032;-67
2022/06/18 01:25:24;;;;;;;3.17;2.08;;;18.20;61.70;;;;;;5057367;28;20033;-67
2022/06/18 01:27:50;;;;;;;2.85;2.40;;;18.20;61.50;;;;;;5039476;28;20561;-67
2022/06/18 01:30:20;;;;;;;2.30;2.08;;;18.10;61.40;;;;;;5039872;28;20033;-67
2022/06/18 01:32:48;;;;;;;2.40;2.17;;;18.20;61.70;;;;;;5039991;28;20147;-67
2022/06/18 01:35:14;;;;;;;2.65;2.17;;;18.10;61.50;;;;;;5042838;28;20036;-68
2022/06/18 01:37:40;;;;;;;3.05;2.30;;;18.10;61.50;;;;;;5042854;28;20029;-67
2022/06/18 01:40:07;;;;;;;2.45;2.13;;;18.00;61.40;;;;;;5041344;28;20041;-67
2022/06/18 01:42:39;;;;;;;2.05;1.95;;;18.00;61.50;;;;;;5036673;28;20399;-67
2022/06/18 01:45:11;;;;;;;2.30;2.10;;;17.90;61.90;;;;;;5038305;28;20137;-67
2022/06/18 01:47:51;;;;;;;2.33;2.13;;;17.90;62.00;;;;;;5040314;28;20519;-67
2022/06/18 01:50:25;;;;;;;2.08;1.88;;;17.80;62.30;;;;;;5042386;28;20091;-67
2022/06/18 01:53:14;;;;;;;2.70;2.00;;;17.80;61.80;;;;;;5038537;28;20106;-67
2022/06/18 01:55:49;;;;;;;4.50;2.08;;;17.80;62.60;;;;;;5038080;28;20324;-67
2022/06/18 01:58:31;;;;;;;3.15;2.05;;;17.70;62.40;;;;;;5036386;28;20037;-67
2022/06/18 02:00:59;;;;;;;3.00;2.10;;;17.70;62.90;;;;;;5036945;28;20036;-67
2022/06/18 02:03:25;;;;;;;1.98;1.88;;;17.70;62.00;;;;;;5040507;28;20028;-67
2022/06/18 02:05:51;;;;;;;3.03;2.22;;;17.70;62.10;;;;;;5040426;28;20114;-67
2022/06/18 02:08:18;;;;;;;2.10;1.90;;;17.70;62.20;;;;;;5038856;28;20060;-67
2022/06/18 02:10:55;;;;;;;4.55;2.10;;;17.70;62.40;;;;;;5035773;28;20048;-67
2022/06/18 02:13:25;;;;;;;2.45;2.25;;;17.70;62.50;;;;;;5040688;28;20462;-68
2022/06/18 02:15:53;;;;;;;2.85;2.08;;;17.60;62.60;;;;;;5039398;28;20037;-67
2022/06/18 02:18:19;;;;;;;2.30;2.10;;;17.60;62.60;;;;;;5039020;28;20032;-67
2022/06/18 02:20:50;;;;;;;2.20;2.00;;;17.60;62.60;;;;;;5038164;28;20047;-67
2022/06/18 02:23:18;;;;;;;4.78;2.20;;;17.60;63.00;;;;;;5039278;28;20033;-68
2022/06/18 02:25:44;;;;;;;2.20;2.10;;;17.60;62.70;;;;;;5037632;28;20048;-68
2022/06/18 02:28:18;;;;;;;2.03;1.92;;;17.60;62.90;;;;;;5040338;28;20584;-67
2022/06/18 02:30:43;;;;;;;2.28;2.08;;;17.50;62.80;;;;;;5038946;28;20375;-67
2022/06/18 02:33:30;;;;;;;1.98;1.88;;;17.50;62.70;;;;;;5044444;22;20057;-70
2022/06/18 02:35:59;;;;;;;4.78;2.33;;;17.50;64.00;;;;;;5014554;28;20528;-69
2022/06/18 02:38:24;;;;;;;3.88;2.13;;;17.50;62.70;;;;;;5014602;28;20415;-69
2022/06/18 02:40:50;;;;;;;2.17;2.08;;;17.50;62.80;;;;;;5013724;28;20521;-69
2022/06/18 02:43:18;;;;;;;2.58;2.38;;;17.50;63.10;;;;;;5012890;28;20026;-69
2022/06/18 02:45:45;;;;;;;2.85;2.33;;;17.50;63.30;;;;;;5025702;28;20479;-69
2022/06/18 02:48:11;;;;;;;3.13;2.47;;;17.50;63.30;;;;;;5013549;28;20519;-69
2022/06/18 02:50:40;;;;;;;2.15;2.03;;;17.50;63.00;;;;;;5012619;28;20057;-69
2022/06/18 02:53:08;;;;;;;2.53;2.10;;;17.50;64.00;;;;;;5012475;28;22184;-69
2022/06/18 02:55:43;;;;;;;2.25;2.15;;;17.50;63.20;;;;;;5016146;28;20509;-69
2022/06/18 02:58:22;;;;;;;2.47;2.20;;;17.50;63.80;;;;;;5012996;28;20293;-69
2022/06/18 03:00:53;;;;;;;2.33;2.15;;;17.60;63.90;;;;;;5013134;28;20038;-69
2022/06/18 03:03:20;;;;;;;2.63;2.42;;;17.60;63.40;;;;;;5012815;28;20030;-69
2022/06/18 03:05:46;;;;;;;2.47;2.28;;;17.60;63.30;;;;;;5013033;28;20038;-68
2022/06/18 03:08:12;;;;;;;2.50;2.30;;;17.60;63.30;;;;;;5014985;28;20033;-69
2022/06/18 03:13:23;;;;;;;2.60;2.25;;;17.60;63.10;;;;;;5014517;28;20072;-69
2022/06/18 03:15:51;;;;;;;4.32;2.50;;;17.50;63.00;;;;;;5014581;28;20352;-69
2022/06/18 03:18:19;;;;;;;2.47;2.30;;;17.50;63.30;;;;;;5014676;28;20038;-69
2022/06/18 03:20:49;;;;;;;2.45;2.28;;;17.50;64.30;;;;;;5014248;28;20052;-69
2022/06/18 03:23:18;;;;;;;3.63;2.50;;;17.50;64.00;;;;;;5014330;28;20500;-69
2022/06/18 03:25:44;;;;;;;4.18;2.47;;;17.40;63.90;;;;;;5013890;28;20073;-69
2022/06/18 03:28:12;;;;;;;3.65;2.53;;;17.40;63.40;;;;;;5013808;28;20036;-69
2022/06/18 03:30:41;;;;;;;4.30;3.75;;;17.30;63.60;;;;;;5014263;28;20033;-68
2022/06/18 03:33:07;;;;;;;24.48;12.02;;;17.30;63.60;;;;;;5012985;28;20070;-69
2022/06/18 03:35:33;;;;;;;40.47;18.60;;;17.30;63.80;;;;;;5012449;28;20151;-69
2022/06/18 03:37:59;;;;;;;30.85;15.85;;;17.30;64.00;;;;;;5012752;28;20139;-69
2022/06/18 03:40:24;;;;;;;39.78;18.60;;;17.40;64.00;;;;;;5014093;28;20124;-69
2022/06/18 03:42:52;;;;;;;31.98;15.30;;;17.40;64.10;;;;;;5013646;28;20511;-69
2022/06/18 03:45:18;;;;;;;14.40;8.10;;;17.40;64.10;;;;;;5015569;28;20520;-69
2022/06/18 03:47:44;;;;;;;10.10;6.65;;;17.50;64.20;;;;;;5015542;28;20041;-69
2022/06/18 03:50:15;;;;;;;6.72;4.85;;;17.50;65.00;;;;;;5014756;28;20111;-70
2022/06/18 03:52:41;;;;;;;5.60;4.22;;;17.50;64.20;;;;;;5017514;28;20071;-69
2022/06/18 03:55:08;;;;;;;4.65;3.40;;;17.50;64.00;;;;;;5013760;28;20033;-69
2022/06/18 03:57:34;;;;;;;6.28;3.70;;;17.50;64.00;;;;;;5018066;28;20045;-69
2022/06/18 03:59:59;;;;;;;5.15;3.38;;;17.50;64.10;;;;;;5016866;28;20041;-69
2022/06/18 04:02:25;;;;;;;4.35;3.38;;;17.50;64.10;;;;;;5013586;28;20570;-69
2022/06/18 04:04:51;;;;;;;3.75;3.15;;;17.50;64.20;;;;;;5017098;28;20064;-68
2022/06/18 04:07:20;;;;;;;4.93;2.80;;;17.50;64.30;;;;;;5016799;28;20042;-69
2022/06/18 04:09:46;;;;;;;2.78;2.58;;;17.50;64.20;;;;;;5015605;28;20038;-69
2022/06/18 04:12:12;;;;;;;2.55;2.35;;;17.50;64.10;;;;;;5014102;28;20041;-69
2022/06/18 04:14:37;;;;;;;2.47;2.28;;;17.50;64.10;;;;;;5014752;28;20030;-69
2022/06/18 04:17:03;;;;;;;2.33;2.10;;;17.50;64.00;;;;;;5013491;28;20075;-68
2022/06/18 04:19:29;;;;;;;2.30;2.10;;;17.50;63.80;;;;;;5016621;28;20045;-69
2022/06/18 04:21:55;;;;;;;3.40;2.40;;;17.50;63.70;;;;;;5013555;28;20026;-68
2022/06/18 04:24:21;;;;;;;2.50;2.30;;;17.40;63.40;;;;;;5015958;28;20036;-68
2022/06/18 04:26:46;;;;;;;3.25;2.40;;;17.50;63.50;;;;;;5013319;28;20080;-69
2022/06/18 04:29:12;;;;;;;4.60;2.90;;;17.40;63.60;;;;;;5014816;28;20602;-69
2022/06/18 04:31:38;;;;;;;2.92;2.72;;;17.40;63.70;;;;;;5016606;28;20030;-69
2022/06/18 04:34:04;;;;;;;3.88;3.00;;;17.30;63.90;;;;;;5013301;28;20048;-69
2022/06/18 04:36:36;;;;;;;3.25;3.00;;;17.40;64.30;;;;;;5013125;28;20030;-69
2022/06/18 04:39:02;;;;;;;3.92;3.42;;;17.30;64.50;;;;;;5011182;28;20049;-69
2022/06/18 04:41:28;;;;;;;4.10;3.10;;;17.20;64.50;;;;;;5014528;28;20583;-69
2022/06/18 04:43:55;;;;;;;4.13;3.00;;;17.20;64.80;;;;;;5013047;28;20037;-69
2022/06/18 04:46:20;;;;;;;4.00;3.17;;;17.10;65.00;;;;;;5008907;28;20211;-69
2022/06/18 04:48:46;;;;;;;3.50;2.83;;;17.10;65.20;;;;;;5013759;28;20507;-69
2022/06/18 04:51:12;;;;;;;3.50;3.05;;;17.10;65.30;;;;;;5014864;28;20038;-68
2022/06/18 04:53:37;;;;;;;8.05;3.30;;;17.10;65.40;;;;;;5015242;28;20053;-69
2022/06/18 04:56:03;;;;;;;3.53;3.08;;;17.20;65.80;;;;;;5014754;28;20658;-69
2022/06/18 04:58:29;;;;;;;4.43;3.30;;;17.30;65.90;;;;;;5015036;28;20069;-69
2022/06/18 05:00:55;;;;;;;5.35;3.10;;;17.30;65.80;;;;;;5014703;28;20400;-69
2022/06/18 05:03:21;;;;;;;3.85;3.50;;;17.30;65.70;;;;;;5015426;28;20052;-69
2022/06/18 05:05:47;;;;;;;6.32;3.45;;;17.40;65.90;;;;;;5013737;28;20038;-69
2022/06/18 05:08:13;;;;;;;4.10;3.70;;;17.40;66.00;;;;;;5015439;28;20036;-69
2022/06/18 05:10:39;;;;;;;3.72;3.40;;;17.50;65.90;;;;;;5015118;28;20504;-69
2022/06/18 05:13:06;;;;;;;4.90;3.47;;;17.60;65.80;;;;;;5015987;28;20046;-69
2022/06/18 05:15:32;;;;;;;4.15;3.75;;;17.60;66.70;;;;;;5014579;28;20505;-69
2022/06/18 05:17:58;;;;;;;5.18;3.42;;;17.70;65.90;;;;;;5011639;28;20040;-69
2022/06/18 05:20:24;;;;;;;3.47;3.28;;;17.70;65.80;;;;;;5013105;28;20291;-69
2022/06/18 05:22:51;;;;;;;3.80;3.50;;;17.80;66.10;;;;;;5016143;28;20054;-69
2022/06/18 05:25:18;;;;;;;4.30;3.90;;;17.90;65.90;;;;;;5012998;28;20409;-69
2022/06/18 05:27:45;;;;;;;4.70;3.50;;;18.00;65.90;;;;;;5014570;28;20041;-69
2022/06/18 05:30:17;;;;;;;3.80;3.17;;;18.10;66.00;;;;;;5013907;28;20377;-69
2022/06/18 05:32:44;;;;;;;3.78;3.47;;;18.20;66.20;;;;;;5016364;28;20054;-69
2022/06/18 05:35:11;;;;;;;4.00;3.70;;;18.30;66.10;;;;;;5017663;28;20034;-69
2022/06/18 05:37:38;;;;;;;4.38;3.97;;;18.40;66.00;;;;;;5015315;28;20037;-69
2022/06/18 05:40:04;;;;;;;4.45;3.53;;;18.50;65.70;;;;;;5014246;28;20079;-69
2022/06/18 05:42:30;;;;;;;4.25;3.88;;;18.60;65.50;;;;;;5014646;28;20194;-69
2022/06/18 05:44:56;;;;;;;5.68;4.22;;;18.70;65.60;;;;;;5014594;28;20025;-69
2022/06/18 05:47:28;;;;;;;5.15;4.53;;;18.80;65.30;;;;;;5015409;28;20041;-69
2022/06/18 05:49:56;;;;;;;4.90;4.30;;;19.00;65.30;;;;;;5013780;28;20401;-69
2022/06/18 05:52:22;;;;;;;4.30;3.85;;;19.00;65.00;;;;;;5014411;28;20084;-69
2022/06/18 05:54:51;;;;;;;4.72;4.32;;;19.20;65.00;;;;;;5013968;28;20030;-68
2022/06/18 05:57:17;;;;;;;4.93;4.13;;;19.30;64.80;;;;;;5015988;28;20379;-69
2022/06/18 05:59:43;;;;;;;4.05;3.72;;;19.40;64.60;;;;;;5016809;28;20037;-69
2022/06/18 06:02:14;;;;;;;4.88;3.92;;;19.50;64.90;;;;;;5012899;28;20544;-70
2022/06/18 06:04:42;;;;;;;4.63;4.22;;;19.60;64.80;;;;;;5014851;28;20060;-69
2022/06/18 06:07:16;;;;;;;5.60;3.63;;;19.80;64.50;;;;;;5015298;28;20563;-69
2022/06/18 06:12:26;;;;;;;3.63;3.33;;;20.00;63.80;;;;;;5016233;28;20099;-69
2022/06/18 06:14:52;;;;;;;4.95;3.40;;;20.20;63.30;;;;;;5015307;28;20662;-69
2022/06/18 06:17:22;;;;;;;3.53;3.22;;;20.30;63.00;;;;;;5013332;28;20409;-69
2022/06/18 06:19:49;;;;;;;4.13;3.55;;;20.40;62.50;;;;;;5011935;28;20134;-69
2022/06/18 06:22:14;;;;;;;3.40;3.10;;;20.50;62.10;;;;;;5015552;28;20160;-69
2022/06/18 06:24:40;;;;;;;3.95;3.00;;;20.60;61.80;;;;;;5013305;28;20115;-69
2022/06/18 06:27:05;;;;;;;3.00;2.80;;;20.70;61.90;;;;;;5014486;28;20030;-69
2022/06/18 06:29:32;;;;;;;3.15;2.95;;;20.80;61.50;;;;;;5015573;28;20029;-69
2022/06/18 06:31:57;;;;;;;3.50;3.20;;;20.90;61.20;;;;;;5015751;28;20064;-69
2022/06/18 06:34:24;;;;;;;3.47;3.13;;;21.00;61.00;;;;;;5017109;28;20045;-69
2022/06/18 06:36:51;;;;;;;3.88;3.15;;;21.10;61.80;;;;;;5015313;28;20037;-69
2022/06/18 06:39:17;;;;;;;3.88;3.08;;;21.20;61.00;;;;;;5015869;28;20553;-69
2022/06/18 06:41:43;;;;;;;3.40;2.85;;;21.30;60.80;;;;;;5002743;28;20038;-68
2022/06/18 06:44:10;;;;;;;2.95;2.75;;;21.40;61.00;;;;;;5001824;28;20034;-66
2022/06/18 06:46:36;;;;;;;3.15;2.85;;;21.60;60.80;;;;;;5004058;28;20037;-69
2022/06/18 06:49:02;;;;;;;2.97;2.60;;;21.70;61.00;;;;;;5009990;28;20036;-69
2022/06/18 06:51:29;;;;;;;3.42;2.65;;;21.80;61.00;;;;;;5004607;28;20034;-69
2022/06/18 06:53:55;;;;;;;4.82;2.40;;;21.80;60.50;;;;;;5006509;28;20046;-69
2022/06/18 06:59:09;;;;;;;2.78;2.58;;;22.10;60.00;;;;;;5006625;28;20774;-69
2022/06/18 07:01:36;;;;;;;3.30;2.38;;;22.20;59.60;;;;;;5001331;28;20042;-69
2022/06/18 07:04:03;;;;;;;2.95;2.60;;;22.30;59.50;;;;;;5010669;28;20041;-68
2022/06/18 07:06:29;;;;;;;2.72;2.53;;;22.40;59.80;;;;;;5012736;28;20045;-69
2022/06/18 07:08:55;;;;;;;2.70;2.50;;;22.50;59.50;;;;;;5013118;28;20054;-69
2022/06/18 07:11:21;;;;;;;2.38;2.17;;;22.70;59.60;;;;;;5008092;28;20068;-68
2022/06/18 07:13:47;;;;;;;2.47;2.28;;;22.80;59.00;;;;;;5009011;28;20049;-67
2022/06/18 07:16:15;;;;;;;2.45;2.15;;;22.90;58.70;;;;;;5014177;28;20033;-68
2022/06/18 07:18:42;;;;;;;2.10;2.00;;;23.00;58.20;;;;;;5011567;28;20069;-69
2022/06/18 07:21:12;;;;;;;7.80;2.25;;;23.10;57.90;;;;;;5013304;28;20042;-70
2022/06/18 07:23:38;;;;;;;2.42;2.10;;;23.20;57.60;;;;;;5015687;28;20107;-69
2022/06/18 07:26:04;;;;;;;2.00;1.90;;;23.40;57.60;;;;;;5011706;28;20472;-69
2022/06/18 07:28:30;;;;;;;2.05;1.95;;;23.50;57.10;;;;;;5013823;28;20037;-69
2022/06/18 07:30:55;;;;;;;3.13;2.22;;;23.60;56.90;;;;;;5010216;28;20047;-69
2022/06/18 07:33:25;;;;;;;2.58;2.05;;;23.70;56.50;;;;;;5012521;28;20459;-69
2022/06/18 07:35:52;;;;;;;2.15;1.95;;;23.80;56.80;;;;;;5011814;28;20129;-68
2022/06/18 07:38:18;;;;;;;2.25;2.05;;;23.90;55.90;;;;;;5014846;28;20064;-70
2022/06/18 07:40:48;;;;;;;1.90;1.80;;;24.00;55.50;;;;;;5012866;28;20041;-70
2022/06/18 07:43:24;;;;;;;2.25;2.08;;;24.10;55.20;;;;;;5013412;28;20026;-70
2022/06/18 07:45:50;;;;;;;1.95;1.85;;;24.30;54.70;;;;;;5014331;28;20046;-70
2022/06/18 07:48:15;;;;;;;2.35;2.20;;;24.40;54.90;;;;;;5014522;28;20339;-70
2022/06/18 07:50:43;;;;;;;5.25;2.15;;;24.50;54.30;;;;;;5012114;28;20052;-70
2022/06/18 07:53:15;;;;;;;1.85;1.75;;;24.70;53.90;;;;;;5015545;28;20053;-70
2022/06/18 07:55:41;;;;;;;1.85;1.67;;;24.80;53.50;;;;;;5011873;28;20046;-70
2022/06/18 07:58:06;;;;;;;2.03;1.83;;;24.90;53.30;;;;;;5014109;28;20061;-69
2022/06/18 08:00:32;;;;;;;24.45;2.55;;;25.00;53.00;;;;;;5011825;28;20121;-68
2022/06/18 08:02:58;;;;;;;2.00;1.80;;;25.10;52.50;;;;;;5013238;28;20072;-69
2022/06/18 08:05:27;;;;;;;1.85;1.73;;;25.30;52.80;;;;;;5014479;28;20037;-70
2022/06/18 08:07:53;;;;;;;1.80;1.70;;;25.40;52.10;;;;;;5014588;28;20037;-69
2022/06/18 08:10:19;;;;;;;2.30;1.75;;;25.50;52.00;;;;;;5010743;28;20044;-69
2022/06/18 08:12:45;;;;;;;2.47;1.60;;;25.60;51.90;;;;;;5007983;28;20053;-69
2022/06/18 08:15:11;;;;;;;1.90;1.60;;;25.80;51.70;;;;;;5012347;28;20088;-70
2022/06/18 08:17:37;;;;;;;1.88;1.77;;;25.90;51.50;;;;;;5008686;28;20073;-69
2022/06/18 08:20:08;;;;;;;2.58;1.58;;;26.00;51.00;;;;;;5005727;28;20125;-70
2022/06/18 08:22:36;;;;;;;2.88;1.70;;;26.10;50.60;;;;;;5015712;28;20033;-70
2022/06/18 08:25:03;;;;;;;3.38;1.60;;;26.30;50.70;;;;;;5018282;28;20187;-69
2022/06/18 08:27:29;;;;;;;1.98;1.52;;;26.40;50.10;;;;;;5018473;28;20062;-69
2022/06/18 08:29:55;;;;;;;3.13;1.80;;;26.60;50.10;;;;;;5018758;28;20044;-69
2022/06/18 08:32:20;;;;;;;1.80;1.67;;;26.70;50.00;;;;;;5036818;23;20053;-68
2022/06/18 08:34:46;;;;;;;1.70;1.60;;;26.80;49.80;;;;;;5041850;28;20488;-69
2022/06/18 08:37:12;;;;;;;1.55;1.45;;;27.00;48.90;;;;;;5045220;28;20048;-69
2022/06/18 08:39:38;;;;;;;1.83;1.40;;;27.10;48.20;;;;;;5045250;28;20626;-68
2022/06/18 08:42:32;;;;;;;1.73;1.40;;;27.20;47.70;;;;;;5036761;28;20455;-69
2022/06/18 08:45:06;;;;;;;2.80;1.50;;;27.40;46.30;;;;;;5021910;28;20869;-69
2022/06/18 08:47:56;;;;;;;4.00;1.45;;;27.50;46.80;;;;;;5019294;28;20031;-69
2022/06/18 08:50:36;;;;;;;1.50;1.40;;;27.70;46.30;;;;;;5029723;28;20474;-68
2022/06/18 08:53:32;;;;;;;2.17;1.50;;;27.80;45.50;;;;;;5034867;28;20057;-69
2022/06/18 08:56:14;;;;;;;3.92;1.30;;;27.90;45.50;;;;;;5022096;28;20172;-68
2022/06/18 08:58:52;;;;;;;1.50;1.40;;;28.10;45.60;;;;;;5025602;28;20551;-67
2022/06/18 09:01:27;;;;;;;1.60;1.50;;;28.20;45.40;;;;;;5019407;28;20427;-69
2022/06/18 09:04:12;;;;;;;3.05;1.88;;;28.30;45.50;;;;;;5023672;28;20045;-69
2022/06/18 09:07:02;;;;;;;1.75;1.60;;;28.40;45.50;;;;;;5032905;28;20484;-69
2022/06/18 09:09:37;;;;;;;3.00;1.73;;;28.50;44.80;;;;;;5032411;28;20029;-69
2022/06/18 09:12:09;;;;;;;1.50;1.40;;;28.70;45.10;;;;;;5019237;28;20091;-69
2022/06/18 09:14:46;;;;;;;5.28;1.83;;;28.80;45.10;;;;;;5029046;28;20044;-69
2022/06/18 09:17:23;;;;;;;1.73;1.40;;;28.90;43.90;;;;;;5028597;28;20037;-70
2022/06/18 09:20:01;;;;;;;1.63;1.42;;;29.00;43.80;;;;;;5023985;28;20572;-69
2022/06/18 09:22:33;;;;;;;1.90;1.30;;;29.10;43.80;;;;;;5025929;28;20847;-69
2022/06/18 09:25:10;;;;;;;2.20;1.42;;;29.30;44.50;;;;;;5025797;28;20076;-69
2022/06/18 09:27:59;;;;;;;1.60;1.33;;;29.40;43.50;;;;;;5025651;28;20030;-69
2022/06/18 09:31:02;;;;;;;33.90;2.20;;;29.60;43.30;;;;;;5027684;28;20041;-70
2022/06/18 09:33:30;;;;;;;1.48;1.38;;;29.70;43.20;;;;;;5025068;28;20029;-69
2022/06/18 09:36:17;;;;;;;4.50;1.50;;;29.90;42.90;;;;;;5022107;28;20171;-69
2022/06/18 09:38:51;;;;;;;4.93;1.42;;;30.00;42.70;;;;;;5044550;28;20033;-69
2022/06/18 09:41:23;;;;;;;1.50;1.40;;;30.10;43.50;;;;;;5028685;28;20034;-69
2022/06/18 09:44:01;;;;;;;1.60;1.50;;;30.20;43.80;;;;;;5173297;23;20060;-69
2022/06/18 09:46:45;;;;;;;1.50;1.40;;;30.30;43.30;;;;;;5153897;22;20781;-71
2022/06/18 09:49:11;;;;;;;4.80;1.50;;;30.40;42.60;;;;;;5014363;28;20069;-69
2022/06/18 09:51:45;;;;;;;1.60;1.50;;;30.60;43.20;;;;;;5017551;28;20034;-69
2022/06/18 09:54:12;;;;;;;;;;;30.60;42.60;;;;;;5017997;28;20038;-70
2022/06/18 09:56:43;;;;;;;2.38;1.50;;;30.70;43.40;;;;;;5015992;28;19917;-70
2022/06/18 09:59:17;;;;;;;1.70;1.42;;;30.90;42.80;;;;;;5018939;28;20646;-71
2022/06/18 10:01:47;;;;;;;1.70;1.35;;;30.90;42.10;;;;;;5015049;28;20042;-69
2022/06/18 10:07:04;;;;;;;5.20;1.70;;;31.10;40.80;;;;;;5014823;28;20033;-70
2022/06/18 10:09:33;;;;;;;1.75;1.50;;;31.10;41.20;;;;;;5013805;28;20164;-70
2022/06/18 10:12:00;;;;;;;1.35;1.25;;;31.20;41.30;;;;;;5013155;28;20125;-69
2022/06/18 10:14:26;;;;;;;1.80;1.52;;;31.20;40.90;;;;;;5016503;28;20041;-70
2022/06/18 10:16:58;;;;;;;1.83;1.50;;;31.30;40.30;;;;;;5018474;28;20448;-69
2022/06/18 10:19:49;;;;;;;3.10;1.50;;;31.30;39.70;;;;;;5017300;28;20515;-70
2022/06/18 10:22:17;;;;;;;2.05;1.60;;;31.40;40.60;;;;;;5017358;28;20037;-70
2022/06/18 10:24:57;;;;;;;7.22;1.83;;;31.40;39.90;;;;;;5017141;28;20042;-70
2022/06/18 10:27:43;;;;;;;2.88;1.50;;;31.50;39.30;;;;;;5017044;28;20455;-70
2022/06/18 10:30:20;;;;;;;1.77;1.45;;;31.60;39.40;;;;;;5018341;28;20037;-70
2022/06/18 10:32:51;;;;;;;1.83;1.73;;;31.70;38.80;;;;;;5017109;28;20037;-71
2022/06/18 10:35:32;;;;;;;2.08;1.52;;;31.70;39.10;;;;;;5014737;28;20030;-70
2022/06/18 10:38:10;;;;;;;1.85;1.60;;;31.80;38.00;;;;;;5014574;28;20029;-70
2022/06/18 10:40:59;;;;;;;1.60;1.50;;;31.80;38.10;;;;;;5015031;28;20050;-70
2022/06/18 10:43:57;;;;;;;2.92;1.55;;;31.90;38.30;;;;;;5016605;28;20057;-70
2022/06/18 10:46:24;;;;;;;6.22;1.50;;;31.90;37.20;;;;;;5017904;28;20034;-70
2022/06/18 10:48:54;;;;;;;3.00;1.40;;;32.00;38.50;;;;;;5019502;28;20109;-70
2022/06/18 10:51:23;;;;;;;1.50;1.40;;;32.00;37.70;;;;;;5022326;28;20030;-70
2022/06/18 10:53:55;;;;;;;1.27;1.27;;;32.00;37.60;;;;;;5022789;28;20424;-70
2022/06/18 10:56:23;;;;;;;2.08;1.45;;;32.10;37.00;;;;;;5020654;28;20030;-70
2022/06/18 10:58:51;;;;;;;1.42;1.30;;;32.20;37.30;;;;;;5016475;28;20049;-69
2022/06/18 11:01:39;;;;;;;2.15;1.38;;;32.30;37.20;;;;;;5017579;28;20034;-71
2022/06/18 11:04:22;;;;;;;6.00;1.90;;;32.30;36.20;;;;;;5017523;28;20128;-70
2022/06/18 11:06:52;;;;;;;2.05;1.60;;;32.40;36.20;;;;;;5016199;28;20188;-71
2022/06/18 11:09:37;;;;;;;3.47;1.35;;;32.50;37.00;;;;;;5021840;28;20501;-70
2022/06/18 11:12:18;;;;;;;;;;;32.50;36.80;;;;;;5019994;28;20099;-70
2022/06/18 11:14:45;;;;;;;1.90;1.52;;;32.50;38.40;;;;;;5021251;28;19968;-70
2022/06/18 11:17:18;;;;;;;2.78;1.63;;;32.60;37.20;;;;;;5020246;28;20034;-71
2022/06/18 11:19:48;;;;;;;3.17;1.47;;;32.60;36.40;;;;;;5020675;28;20462;-70
2022/06/18 11:22:35;;;;;;;2.33;1.27;;;32.60;36.40;;;;;;5020423;28;20645;-71
2022/06/18 11:25:04;;;;;;;2.20;1.33;;;32.70;36.10;;;;;;5018179;28;20037;-71
2022/06/18 11:27:34;;;;;;;3.30;1.50;;;32.70;36.40;;;;;;5019379;28;20026;-71
2022/06/18 11:30:16;;;;;;;7.18;1.80;;;32.80;36.00;;;;;;5020059;28;20033;-70
2022/06/18 11:32:47;;;;;;;60.55;3.70;;;32.80;35.90;;;;;;5019646;28;20042;-70
2022/06/18 11:35:25;;;;;;;1.73;1.30;;;32.90;36.30;;;;;;5020254;28;20049;-70
2022/06/18 11:38:14;;;;;;;1.40;1.30;;;33.00;35.90;;;;;;5020698;28;20030;-71
2022/06/18 11:40:40;;;;;;;2.17;1.40;;;33.00;35.80;;;;;;5017652;28;20100;-70
2022/06/18 11:43:28;;;;;;;3.35;1.70;;;33.00;35.70;;;;;;5019294;28;20041;-70
2022/06/18 11:46:00;;;;;;;2.97;1.42;;;33.00;35.10;;;;;;5016600;28;20042;-70
2022/06/18 11:48:44;;;;;;;1.45;1.17;;;33.00;35.10;;;;;;5019285;28;20034;-71
2022/06/18 11:51:39;;;;;;;2.30;1.30;;;33.10;34.90;;;;;;5018274;28;20025;-71
2022/06/18 11:54:13;;;;;;;3.00;1.30;;;33.20;35.00;;;;;;5008377;28;20461;-70
2022/06/18 11:57:05;;;;;;;1.50;1.35;;;33.20;35.10;;;;;;5016765;28;20568;-70
2022/06/18 11:59:59;;;;;;;2.95;1.20;;;33.30;34.40;;;;;;5009833;28;20455;-70
2022/06/18 12:02:35;;;;;;;1.55;1.20;;;33.30;33.80;;;;;;5020086;28;20053;-70
2022/06/18 12:05:11;;;;;;;4.53;1.30;;;33.30;33.90;;;;;;5019320;28;20045;-70
2022/06/18 12:07:41;;;;;;;1.20;1.10;;;33.40;33.80;;;;;;5018265;28;20040;-70
2022/06/18 12:10:16;;;;;;;2.08;1.25;;;33.40;33.60;;;;;;5014329;28;20034;-71
2022/06/18 12:13:01;;;;;;;1.38;1.23;;;33.50;33.00;;;;;;5018954;28;20472;-70
2022/06/18 12:15:32;;;;;;;3.78;1.27;;;33.50;33.60;;;;;;5016185;28;20029;-71
2022/06/18 12:18:25;;;;;;;2.30;1.30;;;33.60;33.60;;;;;;5018182;28;20034;-71
2022/06/18 12:21:15;;;;;;;2.78;1.20;;;33.60;33.30;;;;;;5018384;28;20033;-71
2022/06/18 12:23:50;;;;;;;1.67;1.15;;;33.70;33.50;;;;;;5019318;28;20033;-70
2022/06/18 12:26:21;;;;;;;3.88;1.60;;;33.70;33.10;;;;;;5018991;28;20033;-70
2022/06/18 12:29:08;;;;;;;5.10;1.23;;;33.70;32.60;;;;;;5019083;28;20595;-72
2022/06/18 12:31:49;;;;;;;1.80;1.20;;;33.70;32.00;;;;;;5019652;28;20057;-70
2022/06/18 12:34:22;;;;;;;3.97;1.42;;;33.80;32.80;;;;;;5017896;28;20042;-70
2022/06/18 12:36:47;;;;;;;22.45;1.70;;;33.80;32.60;;;;;;5016494;28;20447;-71
2022/06/18 12:39:16;;;;;;;4.03;1.60;;;33.80;32.40;;;;;;5018117;28;20045;-71
2022/06/18 12:42:10;;;;;;;2.50;1.30;;;33.80;32.70;;;;;;5018597;28;20039;-70
2022/06/18 12:44:54;;;;;;;4.53;1.70;;;33.90;32.40;;;;;;5019215;28;20037;-71
2022/06/18 12:47:28;;;;;;;4.38;1.50;;;33.90;32.20;;;;;;5019733;28;20038;-70
2022/06/18 12:50:02;;;;;;;5.10;1.42;;;33.90;32.30;;;;;;5018821;28;20111;-70
2022/06/18 12:52:43;;;;;;;7.32;1.50;;;33.90;32.20;;;;;;5018149;28;20029;-70
2022/06/18 12:55:20;;;;;;;4.47;1.80;;;33.90;31.40;;;;;;5019648;28;20033;-69
2022/06/18 12:57:55;;;;;;;4.60;1.50;;;33.90;31.70;;;;;;5018068;28;20033;-69
2022/06/18 13:00:35;;;;;;;;;;;34.00;31.80;;;;;;5020661;28;20105;-70
2022/06/18 13:03:09;;;;;;;3.92;1.33;;;34.10;33.40;;;;;;5018260;28;20277;-69
2022/06/18 13:05:46;;;;;;;3.00;1.42;;;34.10;32.00;;;;;;5016354;28;20033;-69
2022/06/18 13:08:24;;;;;;;7.13;1.65;;;34.10;32.00;;;;;;5014476;28;20524;-71
2022/06/18 13:10:55;;;;;;;2.67;1.48;;;34.10;32.40;;;;;;5018060;28;20064;-70
2022/06/18 13:14:01;;;;;;;2.50;1.50;;;34.20;32.00;;;;;;5016661;28;20072;-69
2022/06/18 13:16:48;;;;;;;2.60;1.45;;;34.20;31.70;;;;;;5015453;28;20038;-69
2022/06/18 13:19:27;;;;;;;3.30;1.30;;;34.30;31.70;;;;;;5018127;28;20318;-69
2022/06/18 13:21:53;;;;;;;4.25;1.30;;;34.30;32.20;;;;;;5019216;28;20065;-70